sensor_id;sensor_type;location;lat;lon;timestamp;temperature;humidity
3086;DHT22;52812;48.960;9.108;2022-12-13T00:01:28;-6.90;99.90
3086;DHT22;52812;48.960;9.108;2022-12-13T00:03:55;-7.00;99.90
3086;DHT22;52812;48.960;9.108;2022-12-13T00:06:21;-7.00;99.90
3086;DHT22;52812;48.960;9.108;2022-12-13T00:08:47;-7.10;99.90
3086;DHT22;52812;48.960;9.108;2022-12-13T00:11:13;-7.10;99.90
3086;DHT22;52812;48.960;9.108;2022-12-13T00:13:40;-7.10;99.90
3086;DHT22;52812;48.960;9.108;2022-12-13T00:16:09;-7.10;99.90
3086;DHT22;52812;48.960;9.108;2022-12-13T00:18:35;-6.90;99.90
3086;DHT22;52812;48.960;9.108;2022-12-13T00:21:07;-6.80;99.90
3086;DHT22;52812;48.960;9.108;2022-12-13T00:23:34;-6.80;99.90
3086;DHT22;52812;48.960;9.108;2022-12-13T00:26:08;-6.90;99.90
3086;DHT22;52812;48.960;9.108;2022-12-13T00:28:34;-6.90;99.90
3086;DHT22;52812;48.960;9.108;2022-12-13T00:31:01;-6.80;99.90
3086;DHT22;52812;48.960;9.108;2022-12-13T00:33:27;-6.80;99.90
3086;DHT22;52812;48.960;9.108;2022-12-13T00:35:53;-6.80;99.90
3086;DHT22;52812;48.960;9.108;2022-12-13T00:38:19;-6.90;99.90
3086;DHT22;52812;48.960;9.108;2022-12-13T00:40:45;-7.00;99.90
3086;DHT22;52812;48.960;9.108;2022-12-13T00:43:11;-7.10;99.90
3086;DHT22;52812;48.960;9.108;2022-12-13T00:45:37;-7.20;99.90
3086;DHT22;52812;48.960;9.108;2022-12-13T00:48:03;-7.20;99.90
3086;DHT22;52812;48.960;9.108;2022-12-13T00:50:29;-7.30;99.90
3086;DHT22;52812;48.960;9.108;2022-12-13T00:52:55;-7.30;99.90
3086;DHT22;52812;48.960;9.108;2022-12-13T00:55:21;-7.30;99.90
3086;DHT22;52812;48.960;9.108;2022-12-13T00:57:46;-7.30;99.90
3086;DHT22;52812;48.960;9.108;2022-12-13T01:00:12;-7.30;99.90
3086;DHT22;52812;48.960;9.108;2022-12-13T01:02:38;-7.10;99.90
3086;DHT22;52812;48.960;9.108;2022-12-13T01:05:04;-7.10;99.90
3086;DHT22;52812;48.960;9.108;2022-12-13T01:07:30;-7.00;99.90
3086;DHT22;52812;48.960;9.108;2022-12-13T01:09:57;-7.10;99.90
3086;DHT22;52812;48.960;9.108;2022-12-13T01:12:22;-7.20;99.90
3086;DHT22;52812;48.960;9.108;2022-12-13T01:14:48;-7.30;99.90
3086;DHT22;52812;48.960;9.108;2022-12-13T01:17:14;-7.40;99.90
3086;DHT22;52812;48.960;9.108;2022-12-13T01:19:39;-7.40;99.90
3086;DHT22;52812;48.960;9.108;2022-12-13T01:22:05;-7.20;99.90
3086;DHT22;52812;48.960;9.108;2022-12-13T01:24:32;-7.10;99.90
3086;DHT22;52812;48.960;9.108;2022-12-13T01:26:58;-7.10;99.90
3086;DHT22;52812;48.960;9.108;2022-12-13T01:29:25;-7.10;99.90
3086;DHT22;52812;48.960;9.108;2022-12-13T01:31:52;-7.20;99.90
3086;DHT22;52812;48.960;9.108;2022-12-13T01:34:19;-7.00;99.90
3086;DHT22;52812;48.960;9.108;2022-12-13T01:36:46;-7.00;99.90
3086;DHT22;52812;48.960;9.108;2022-12-13T01:39:15;-7.20;99.90
3086;DHT22;52812;48.960;9.108;2022-12-13T01:41:41;-7.30;99.90
3086;DHT22;52812;48.960;9.108;2022-12-13T01:47:11;-7.50;99.90
3086;DHT22;52812;48.960;9.108;2022-12-13T01:49:37;-7.50;99.90
3086;DHT22;52812;48.960;9.108;2022-12-13T01:52:05;-7.50;99.90
3086;DHT22;52812;48.960;9.108;2022-12-13T01:54:36;-7.60;99.90
3086;DHT22;52812;48.960;9.108;2022-12-13T01:57:06;-7.60;99.90
3086;DHT22;52812;48.960;9.108;2022-12-13T01:59:35;-7.60;99.90
3086;DHT22;52812;48.960;9.108;2022-12-13T02:02:02;-7.70;99.90
3086;DHT22;52812;48.960;9.108;2022-12-13T02:04:30;-7.70;99.90
3086;DHT22;52812;48.960;9.108;2022-12-13T02:06:58;-7.60;99.90
3086;DHT22;52812;48.960;9.108;2022-12-13T02:09:25;-7.50;99.90
3086;DHT22;52812;48.960;9.108;2022-12-13T02:11:51;-7.50;99.90
3086;DHT22;52812;48.960;9.108;2022-12-13T02:14:17;-7.50;99.90
3086;DHT22;52812;48.960;9.108;2022-12-13T02:30:54;-7.70;99.90
3086;DHT22;52812;48.960;9.108;2022-12-13T02:41:26;-7.80;99.90
3086;DHT22;52812;48.960;9.108;2022-12-13T02:43:55;-7.70;99.90
3086;DHT22;52812;48.960;9.108;2022-12-13T02:46:25;-7.70;99.90
3086;DHT22;52812;48.960;9.108;2022-12-13T02:48:53;-7.70;99.90
3086;DHT22;52812;48.960;9.108;2022-12-13T02:51:21;-7.70;99.90
3086;DHT22;52812;48.960;9.108;2022-12-13T02:53:47;-7.80;99.90
3086;DHT22;52812;48.960;9.108;2022-12-13T02:56:13;-7.80;99.90
3086;DHT22;52812;48.960;9.108;2022-12-13T02:58:46;-7.80;99.90
3086;DHT22;52812;48.960;9.108;2022-12-13T03:01:34;-7.80;99.90
3086;DHT22;52812;48.960;9.108;2022-12-13T03:07:05;-7.90;99.90
3086;DHT22;52812;48.960;9.108;2022-12-13T03:15:24;-7.80;99.90
3086;DHT22;52812;48.960;9.108;2022-12-13T03:17:55;-7.80;99.90
3086;DHT22;52812;48.960;9.108;2022-12-13T03:20:24;-7.90;99.90
3086;DHT22;52812;48.960;9.108;2022-12-13T03:22:51;-8.00;99.90
3086;DHT22;52812;48.960;9.108;2022-12-13T03:25:18;-8.10;99.90
3086;DHT22;52812;48.960;9.108;2022-12-13T03:27:44;-8.10;99.90
3086;DHT22;52812;48.960;9.108;2022-12-13T03:30:10;-8.10;99.90
3086;DHT22;52812;48.960;9.108;2022-12-13T03:32:35;-8.00;99.90
3086;DHT22;52812;48.960;9.108;2022-12-13T03:35:01;-8.00;99.90
3086;DHT22;52812;48.960;9.108;2022-12-13T03:37:27;-8.10;99.90
3086;DHT22;52812;48.960;9.108;2022-12-13T03:39:52;-8.10;99.90
3086;DHT22;52812;48.960;9.108;2022-12-13T03:42:18;-8.10;99.90
3086;DHT22;52812;48.960;9.108;2022-12-13T03:44:44;-8.10;99.90
3086;DHT22;52812;48.960;9.108;2022-12-13T03:47:09;-8.10;99.90
3086;DHT22;52812;48.960;9.108;2022-12-13T03:49:35;-8.10;99.90
3086;DHT22;52812;48.960;9.108;2022-12-13T03:52:01;-8.20;99.90
3086;DHT22;52812;48.960;9.108;2022-12-13T03:54:26;-8.20;99.90
3086;DHT22;52812;48.960;9.108;2022-12-13T03:56:52;-8.20;99.90
3086;DHT22;52812;48.960;9.108;2022-12-13T03:59:17;-8.20;99.90
3086;DHT22;52812;48.960;9.108;2022-12-13T04:01:43;-8.10;99.90
3086;DHT22;52812;48.960;9.108;2022-12-13T04:04:08;-8.10;99.90
3086;DHT22;52812;48.960;9.108;2022-12-13T04:06:34;-8.20;99.90
3086;DHT22;52812;48.960;9.108;2022-12-13T04:09:00;-8.20;99.90
3086;DHT22;52812;48.960;9.108;2022-12-13T04:11:25;-8.30;99.90
3086;DHT22;52812;48.960;9.108;2022-12-13T04:14:10;-8.40;99.90
3086;DHT22;52812;48.960;9.108;2022-12-13T04:16:36;-8.30;99.90
3086;DHT22;52812;48.960;9.108;2022-12-13T04:19:02;-8.40;99.90
3086;DHT22;52812;48.960;9.108;2022-12-13T04:21:27;-8.40;99.90
3086;DHT22;52812;48.960;9.108;2022-12-13T04:23:53;-8.50;99.90
3086;DHT22;52812;48.960;9.108;2022-12-13T04:26:19;-8.60;99.90
3086;DHT22;52812;48.960;9.108;2022-12-13T04:28:44;-8.50;99.90
3086;DHT22;52812;48.960;9.108;2022-12-13T04:31:10;-8.50;99.90
3086;DHT22;52812;48.960;9.108;2022-12-13T04:33:35;-8.50;99.90
3086;DHT22;52812;48.960;9.108;2022-12-13T04:36:01;-8.60;99.90
3086;DHT22;52812;48.960;9.108;2022-12-13T04:38:27;-8.60;99.90
3086;DHT22;52812;48.960;9.108;2022-12-13T04:40:53;-8.60;99.90
3086;DHT22;52812;48.960;9.108;2022-12-13T04:43:18;-8.60;99.90
3086;DHT22;52812;48.960;9.108;2022-12-13T04:45:44;-8.60;99.90
3086;DHT22;52812;48.960;9.108;2022-12-13T04:48:09;-8.60;99.90
3086;DHT22;52812;48.960;9.108;2022-12-13T04:50:35;-8.60;99.90
3086;DHT22;52812;48.960;9.108;2022-12-13T04:53:01;-8.60;99.90
3086;DHT22;52812;48.960;9.108;2022-12-13T04:55:27;-8.50;99.90
3086;DHT22;52812;48.960;9.108;2022-12-13T04:57:53;-8.50;99.90
3086;DHT22;52812;48.960;9.108;2022-12-13T05:00:18;-8.40;99.90
3086;DHT22;52812;48.960;9.108;2022-12-13T05:02:46;-8.50;99.90
3086;DHT22;52812;48.960;9.108;2022-12-13T05:05:12;-8.60;99.90
3086;DHT22;52812;48.960;9.108;2022-12-13T05:07:38;-8.60;99.90
3086;DHT22;52812;48.960;9.108;2022-12-13T05:10:04;-8.70;99.90
3086;DHT22;52812;48.960;9.108;2022-12-13T05:12:29;-8.60;99.90
3086;DHT22;52812;48.960;9.108;2022-12-13T05:14:55;-8.50;99.90
3086;DHT22;52812;48.960;9.108;2022-12-13T05:17:21;-8.40;99.90
3086;DHT22;52812;48.960;9.108;2022-12-13T05:19:47;-8.30;99.90
3086;DHT22;52812;48.960;9.108;2022-12-13T05:22:12;-8.40;99.90
3086;DHT22;52812;48.960;9.108;2022-12-13T05:24:42;-8.40;99.90
3086;DHT22;52812;48.960;9.108;2022-12-13T05:27:08;-8.40;99.90
3086;DHT22;52812;48.960;9.108;2022-12-13T05:29:34;-8.50;99.90
3086;DHT22;52812;48.960;9.108;2022-12-13T05:32:00;-8.60;99.90
3086;DHT22;52812;48.960;9.108;2022-12-13T05:34:26;-8.60;99.90
3086;DHT22;52812;48.960;9.108;2022-12-13T05:36:52;-8.70;99.90
3086;DHT22;52812;48.960;9.108;2022-12-13T05:39:17;-8.70;99.90
3086;DHT22;52812;48.960;9.108;2022-12-13T05:41:43;-8.80;99.90
3086;DHT22;52812;48.960;9.108;2022-12-13T05:44:09;-8.80;99.90
3086;DHT22;52812;48.960;9.108;2022-12-13T05:46:35;-8.70;99.90
3086;DHT22;52812;48.960;9.108;2022-12-13T05:49:01;-8.70;99.90
3086;DHT22;52812;48.960;9.108;2022-12-13T05:51:27;-8.60;99.90
3086;DHT22;52812;48.960;9.108;2022-12-13T05:53:53;-8.50;99.90
3086;DHT22;52812;48.960;9.108;2022-12-13T05:56:18;-8.40;99.90
3086;DHT22;52812;48.960;9.108;2022-12-13T05:58:44;-8.40;99.90
3086;DHT22;52812;48.960;9.108;2022-12-13T06:01:12;-8.30;99.90
3086;DHT22;52812;48.960;9.108;2022-12-13T06:03:39;-8.30;99.90
3086;DHT22;52812;48.960;9.108;2022-12-13T06:06:06;-8.30;99.90
3086;DHT22;52812;48.960;9.108;2022-12-13T06:08:32;-8.40;99.90
3086;DHT22;52812;48.960;9.108;2022-12-13T06:11:00;-8.50;99.90
3086;DHT22;52812;48.960;9.108;2022-12-13T06:13:26;-8.60;99.90
3086;DHT22;52812;48.960;9.108;2022-12-13T06:15:52;-8.60;99.90
3086;DHT22;52812;48.960;9.108;2022-12-13T06:18:18;-8.70;99.90
3086;DHT22;52812;48.960;9.108;2022-12-13T06:20:43;-8.70;99.90
3086;DHT22;52812;48.960;9.108;2022-12-13T06:23:09;-8.70;99.90
3086;DHT22;52812;48.960;9.108;2022-12-13T06:25:38;-8.80;99.90
3086;DHT22;52812;48.960;9.108;2022-12-13T06:28:03;-8.90;99.90
3086;DHT22;52812;48.960;9.108;2022-12-13T06:30:29;-8.90;99.90
3086;DHT22;52812;48.960;9.108;2022-12-13T06:32:55;-8.90;99.90
3086;DHT22;52812;48.960;9.108;2022-12-13T06:35:21;-8.90;99.90
3086;DHT22;52812;48.960;9.108;2022-12-13T06:37:50;-8.90;99.90
3086;DHT22;52812;48.960;9.108;2022-12-13T06:40:16;-8.90;99.90
3086;DHT22;52812;48.960;9.108;2022-12-13T06:42:42;-8.90;99.90
3086;DHT22;52812;48.960;9.108;2022-12-13T06:45:07;-8.90;99.90
3086;DHT22;52812;48.960;9.108;2022-12-13T06:47:34;-8.90;99.90
3086;DHT22;52812;48.960;9.108;2022-12-13T06:49:59;-8.90;99.90
3086;DHT22;52812;48.960;9.108;2022-12-13T06:52:25;-8.90;99.90
3086;DHT22;52812;48.960;9.108;2022-12-13T06:54:50;-8.80;99.90
3086;DHT22;52812;48.960;9.108;2022-12-13T06:57:16;-8.80;99.90
3086;DHT22;52812;48.960;9.108;2022-12-13T06:59:42;-8.80;99.90
3086;DHT22;52812;48.960;9.108;2022-12-13T07:02:08;-8.80;99.90
3086;DHT22;52812;48.960;9.108;2022-12-13T07:04:33;-8.80;99.90
3086;DHT22;52812;48.960;9.108;2022-12-13T07:06:59;-8.80;99.90
3086;DHT22;52812;48.960;9.108;2022-12-13T07:09:25;-8.80;99.90
3086;DHT22;52812;48.960;9.108;2022-12-13T07:11:50;-8.90;99.90
3086;DHT22;52812;48.960;9.108;2022-12-13T07:14:16;-8.90;99.90
3086;DHT22;52812;48.960;9.108;2022-12-13T07:16:42;-8.90;99.90
3086;DHT22;52812;48.960;9.108;2022-12-13T07:19:08;-8.90;99.90
3086;DHT22;52812;48.960;9.108;2022-12-13T07:21:35;-8.90;99.90
3086;DHT22;52812;48.960;9.108;2022-12-13T07:24:02;-8.90;99.90
3086;DHT22;52812;48.960;9.108;2022-12-13T07:26:28;-8.90;99.90
3086;DHT22;52812;48.960;9.108;2022-12-13T07:28:54;-8.90;99.90
3086;DHT22;52812;48.960;9.108;2022-12-13T07:31:20;-8.90;99.90
3086;DHT22;52812;48.960;9.108;2022-12-13T07:33:45;-8.80;99.90
3086;DHT22;52812;48.960;9.108;2022-12-13T07:36:13;-8.80;99.90
3086;DHT22;52812;48.960;9.108;2022-12-13T07:38:39;-8.70;99.90
3086;DHT22;52812;48.960;9.108;2022-12-13T07:41:05;-8.50;99.90
3086;DHT22;52812;48.960;9.108;2022-12-13T07:43:31;-8.40;99.90
3086;DHT22;52812;48.960;9.108;2022-12-13T07:45:58;-8.30;99.90
3086;DHT22;52812;48.960;9.108;2022-12-13T07:48:25;-8.10;99.90
3086;DHT22;52812;48.960;9.108;2022-12-13T07:50:51;-8.10;99.90
3086;DHT22;52812;48.960;9.108;2022-12-13T07:53:17;-8.10;99.90
3086;DHT22;52812;48.960;9.108;2022-12-13T07:55:43;-8.00;99.90
3086;DHT22;52812;48.960;9.108;2022-12-13T07:58:12;-8.00;99.90
3086;DHT22;52812;48.960;9.108;2022-12-13T08:00:40;-8.00;99.90
3086;DHT22;52812;48.960;9.108;2022-12-13T08:03:06;-8.00;99.90
3086;DHT22;52812;48.960;9.108;2022-12-13T08:05:32;-7.90;99.90
3086;DHT22;52812;48.960;9.108;2022-12-13T08:07:59;-7.90;99.90
3086;DHT22;52812;48.960;9.108;2022-12-13T08:10:25;-7.90;99.90
3086;DHT22;52812;48.960;9.108;2022-12-13T08:12:50;-7.80;99.90
3086;DHT22;52812;48.960;9.108;2022-12-13T08:15:16;-7.70;99.90
3086;DHT22;52812;48.960;9.108;2022-12-13T08:17:42;-7.60;99.90
3086;DHT22;52812;48.960;9.108;2022-12-13T08:20:07;-7.50;99.90
3086;DHT22;52812;48.960;9.108;2022-12-13T08:22:33;-7.40;99.90
3086;DHT22;52812;48.960;9.108;2022-12-13T08:24:59;-7.30;99.90
3086;DHT22;52812;48.960;9.108;2022-12-13T08:27:24;-7.20;99.90
3086;DHT22;52812;48.960;9.108;2022-12-13T08:29:50;-7.10;99.90
3086;DHT22;52812;48.960;9.108;2022-12-13T08:32:16;-7.00;99.90
3086;DHT22;52812;48.960;9.108;2022-12-13T08:34:41;-7.00;99.90
3086;DHT22;52812;48.960;9.108;2022-12-13T08:37:07;-6.90;99.90
3086;DHT22;52812;48.960;9.108;2022-12-13T08:39:34;-6.80;99.90
3086;DHT22;52812;48.960;9.108;2022-12-13T08:42:05;-6.70;99.90
3086;DHT22;52812;48.960;9.108;2022-12-13T08:44:31;-6.60;99.90
3086;DHT22;52812;48.960;9.108;2022-12-13T08:46:56;-6.60;99.90
3086;DHT22;52812;48.960;9.108;2022-12-13T08:49:22;-6.50;99.90
3086;DHT22;52812;48.960;9.108;2022-12-13T08:51:47;-6.30;99.90
3086;DHT22;52812;48.960;9.108;2022-12-13T08:54:13;-6.20;99.90
3086;DHT22;52812;48.960;9.108;2022-12-13T08:56:39;-6.10;99.90
3086;DHT22;52812;48.960;9.108;2022-12-13T08:59:04;-5.90;99.90
3086;DHT22;52812;48.960;9.108;2022-12-13T09:01:30;-5.80;99.90
3086;DHT22;52812;48.960;9.108;2022-12-13T09:03:55;-5.60;99.90
3086;DHT22;52812;48.960;9.108;2022-12-13T09:06:21;-5.40;99.90
3086;DHT22;52812;48.960;9.108;2022-12-13T09:08:47;-5.20;99.90
3086;DHT22;52812;48.960;9.108;2022-12-13T09:11:12;-5.00;99.90
3086;DHT22;52812;48.960;9.108;2022-12-13T09:13:39;-4.90;99.90
3086;DHT22;52812;48.960;9.108;2022-12-13T09:16:06;-4.70;99.90
3086;DHT22;52812;48.960;9.108;2022-12-13T09:18:33;-4.50;99.90
3086;DHT22;52812;48.960;9.108;2022-12-13T09:20:59;-4.30;99.90
3086;DHT22;52812;48.960;9.108;2022-12-13T09:23:25;-4.20;99.90
3086;DHT22;52812;48.960;9.108;2022-12-13T09:25:58;-4.20;99.90
3086;DHT22;52812;48.960;9.108;2022-12-13T09:28:25;-4.10;99.90
3086;DHT22;52812;48.960;9.108;2022-12-13T09:30:51;-4.00;99.90
3086;DHT22;52812;48.960;9.108;2022-12-13T09:33:16;-4.00;99.90
3086;DHT22;52812;48.960;9.108;2022-12-13T09:35:42;-3.90;99.90
3086;DHT22;52812;48.960;9.108;2022-12-13T09:38:08;-3.80;99.90
3086;DHT22;52812;48.960;9.108;2022-12-13T09:40:34;-3.80;99.90
3086;DHT22;52812;48.960;9.108;2022-12-13T09:43:02;-3.80;99.90
3086;DHT22;52812;48.960;9.108;2022-12-13T09:45:28;-3.70;99.90
3086;DHT22;52812;48.960;9.108;2022-12-13T09:47:55;-3.70;99.90
3086;DHT22;52812;48.960;9.108;2022-12-13T09:50:26;-3.60;99.90
3086;DHT22;52812;48.960;9.108;2022-12-13T09:52:53;-3.60;99.90
3086;DHT22;52812;48.960;9.108;2022-12-13T09:55:22;-3.50;99.90
3086;DHT22;52812;48.960;9.108;2022-12-13T09:57:49;-3.40;99.90
3086;DHT22;52812;48.960;9.108;2022-12-13T10:00:21;-3.50;99.90
3086;DHT22;52812;48.960;9.108;2022-12-13T10:02:48;-3.50;99.90
3086;DHT22;52812;48.960;9.108;2022-12-13T10:05:28;-3.40;99.90
3086;DHT22;52812;48.960;9.108;2022-12-13T10:07:58;-3.40;99.90
3086;DHT22;52812;48.960;9.108;2022-12-13T10:10:25;-3.30;99.90
3086;DHT22;52812;48.960;9.108;2022-12-13T10:13:16;-3.40;99.90
3086;DHT22;52812;48.960;9.108;2022-12-13T10:15:49;-3.30;99.90
3086;DHT22;52812;48.960;9.108;2022-12-13T10:18:24;-3.30;99.90
3086;DHT22;52812;48.960;9.108;2022-12-13T10:20:52;-3.30;99.90
3086;DHT22;52812;48.960;9.108;2022-12-13T10:23:18;-3.20;99.90
3086;DHT22;52812;48.960;9.108;2022-12-13T10:25:52;-3.30;99.90
3086;DHT22;52812;48.960;9.108;2022-12-13T10:28:32;-3.30;99.90
3086;DHT22;52812;48.960;9.108;2022-12-13T10:30:58;-3.20;99.90
3086;DHT22;52812;48.960;9.108;2022-12-13T10:33:32;-3.10;99.90
3086;DHT22;52812;48.960;9.108;2022-12-13T10:36:48;-3.10;99.90
3086;DHT22;52812;48.960;9.108;2022-12-13T10:38:49;-3.00;99.90
3086;DHT22;52812;48.960;9.108;2022-12-13T10:41:36;-3.00;99.90
3086;DHT22;52812;48.960;9.108;2022-12-13T10:46:38;-2.90;99.90
3086;DHT22;52812;48.960;9.108;2022-12-13T10:51:44;-2.90;99.90
3086;DHT22;52812;48.960;9.108;2022-12-13T10:54:16;-2.90;99.90
3086;DHT22;52812;48.960;9.108;2022-12-13T10:56:48;-2.90;99.90
3086;DHT22;52812;48.960;9.108;2022-12-13T11:01:45;-2.70;99.90
3086;DHT22;52812;48.960;9.108;2022-12-13T11:04:32;-2.70;99.90
3086;DHT22;52812;48.960;9.108;2022-12-13T11:07:22;-2.80;99.90
3086;DHT22;52812;48.960;9.108;2022-12-13T11:09:48;-2.70;99.90
3086;DHT22;52812;48.960;9.108;2022-12-13T11:12:18;-2.60;99.90
3086;DHT22;52812;48.960;9.108;2022-12-13T11:15:00;-2.40;99.90
3086;DHT22;52812;48.960;9.108;2022-12-13T11:17:28;-2.50;99.90
3086;DHT22;52812;48.960;9.108;2022-12-13T11:20:01;-2.50;99.90
3086;DHT22;52812;48.960;9.108;2022-12-13T11:22:39;-2.50;99.90
3086;DHT22;52812;48.960;9.108;2022-12-13T11:25:26;-2.40;99.90
3086;DHT22;52812;48.960;9.108;2022-12-13T11:31:03;-2.40;99.90
3086;DHT22;52812;48.960;9.108;2022-12-13T11:46:47;-2.30;99.90
3086;DHT22;52812;48.960;9.108;2022-12-13T11:49:21;-2.30;99.90
3086;DHT22;52812;48.960;9.108;2022-12-13T11:52:38;-2.30;99.90
3086;DHT22;52812;48.960;9.108;2022-12-13T11:57:57;-2.30;99.90
3086;DHT22;52812;48.960;9.108;2022-12-13T12:00:44;-2.30;99.90
3086;DHT22;52812;48.960;9.108;2022-12-13T12:03:20;-2.30;99.90
3086;DHT22;52812;48.960;9.108;2022-12-13T12:05:50;-2.20;99.90
3086;DHT22;52812;48.960;9.108;2022-12-13T12:08:33;-2.20;99.90
3086;DHT22;52812;48.960;9.108;2022-12-13T12:11:09;-2.20;99.90
3086;DHT22;52812;48.960;9.108;2022-12-13T12:13:49;-2.10;99.90
3086;DHT22;52812;48.960;9.108;2022-12-13T12:16:44;-2.10;99.90
3086;DHT22;52812;48.960;9.108;2022-12-13T12:19:15;-2.10;99.90
3086;DHT22;52812;48.960;9.108;2022-12-13T12:22:07;-2.00;99.90
3086;DHT22;52812;48.960;9.108;2022-12-13T12:30:00;-1.90;99.90
3086;DHT22;52812;48.960;9.108;2022-12-13T12:35:12;-1.80;99.90
3086;DHT22;52812;48.960;9.108;2022-12-13T12:43:21;-1.70;99.90
3086;DHT22;52812;48.960;9.108;2022-12-13T12:49:29;-1.70;99.90
3086;DHT22;52812;48.960;9.108;2022-12-13T12:52:14;-1.60;99.90
3086;DHT22;52812;48.960;9.108;2022-12-13T12:55:16;-1.70;99.90
3086;DHT22;52812;48.960;9.108;2022-12-13T13:00:21;-1.50;99.90
3086;DHT22;52812;48.960;9.108;2022-12-13T13:07:49;-1.40;99.90
3086;DHT22;52812;48.960;9.108;2022-12-13T13:10:17;-1.40;99.90
3086;DHT22;52812;48.960;9.108;2022-12-13T13:12:43;-1.40;99.90
3086;DHT22;52812;48.960;9.108;2022-12-13T13:17:58;-1.40;99.90
3086;DHT22;52812;48.960;9.108;2022-12-13T13:20:25;-1.40;99.90
3086;DHT22;52812;48.960;9.108;2022-12-13T13:22:55;-1.40;99.90
3086;DHT22;52812;48.960;9.108;2022-12-13T13:25:32;-1.30;99.90
3086;DHT22;52812;48.960;9.108;2022-12-13T13:28:24;-1.40;99.90
3086;DHT22;52812;48.960;9.108;2022-12-13T13:31:05;-1.50;99.90
3086;DHT22;52812;48.960;9.108;2022-12-13T13:33:45;-1.40;99.90
3086;DHT22;52812;48.960;9.108;2022-12-13T13:42:16;-1.40;99.90
3086;DHT22;52812;48.960;9.108;2022-12-13T13:50:02;-1.50;99.90
3086;DHT22;52812;48.960;9.108;2022-12-13T13:58:44;-1.60;99.90
3086;DHT22;52812;48.960;9.108;2022-12-13T14:01:19;-1.60;99.90
3086;DHT22;52812;48.960;9.108;2022-12-13T14:07:18;-1.70;99.90
3086;DHT22;52812;48.960;9.108;2022-12-13T14:27:27;-1.80;99.90
3086;DHT22;52812;48.960;9.108;2022-12-13T14:29:59;-1.80;99.90
3086;DHT22;52812;48.960;9.108;2022-12-13T14:32:30;-1.90;99.90
3086;DHT22;52812;48.960;9.108;2022-12-13T14:34:57;-1.90;99.90
3086;DHT22;52812;48.960;9.108;2022-12-13T14:37:29;-2.00;99.90
3086;DHT22;52812;48.960;9.108;2022-12-13T14:39:55;-2.10;99.90
3086;DHT22;52812;48.960;9.108;2022-12-13T14:42:25;-2.10;99.90
3086;DHT22;52812;48.960;9.108;2022-12-13T14:44:53;-2.10;99.90
3086;DHT22;52812;48.960;9.108;2022-12-13T14:47:19;-2.10;99.90
3086;DHT22;52812;48.960;9.108;2022-12-13T14:49:53;-2.10;99.90
3086;DHT22;52812;48.960;9.108;2022-12-13T14:52:25;-2.10;99.90
3086;DHT22;52812;48.960;9.108;2022-12-13T14:54:57;-2.10;99.90
3086;DHT22;52812;48.960;9.108;2022-12-13T14:57:26;-2.10;99.90
3086;DHT22;52812;48.960;9.108;2022-12-13T14:59:54;-2.10;99.90
3086;DHT22;52812;48.960;9.108;2022-12-13T15:02:31;-2.20;99.90
3086;DHT22;52812;48.960;9.108;2022-12-13T15:05:04;-2.20;99.90
3086;DHT22;52812;48.960;9.108;2022-12-13T15:07:35;-2.20;99.90
3086;DHT22;52812;48.960;9.108;2022-12-13T15:10:18;-2.20;99.90
3086;DHT22;52812;48.960;9.108;2022-12-13T15:12:44;-2.20;99.90
3086;DHT22;52812;48.960;9.108;2022-12-13T15:15:26;-2.10;99.90
3086;DHT22;52812;48.960;9.108;2022-12-13T15:20:32;-2.00;99.90
3086;DHT22;52812;48.960;9.108;2022-12-13T15:23:23;-2.00;99.90
3086;DHT22;52812;48.960;9.108;2022-12-13T15:26:23;-2.00;99.90
3086;DHT22;52812;48.960;9.108;2022-12-13T15:28:54;-2.00;99.90
3086;DHT22;52812;48.960;9.108;2022-12-13T15:31:21;-2.10;99.90
3086;DHT22;52812;48.960;9.108;2022-12-13T15:33:47;-2.00;99.90
3086;DHT22;52812;48.960;9.108;2022-12-13T15:36:24;-2.10;99.90
3086;DHT22;52812;48.960;9.108;2022-12-13T15:38:59;-2.10;99.90
3086;DHT22;52812;48.960;9.108;2022-12-13T15:41:28;-2.10;99.90
3086;DHT22;52812;48.960;9.108;2022-12-13T15:44:04;-2.10;99.90
3086;DHT22;52812;48.960;9.108;2022-12-13T15:46:32;-2.10;99.90
3086;DHT22;52812;48.960;9.108;2022-12-13T15:49:02;-2.10;99.90
3086;DHT22;52812;48.960;9.108;2022-12-13T15:51:29;-2.10;99.90
3086;DHT22;52812;48.960;9.108;2022-12-13T15:56:35;-2.10;99.90
3086;DHT22;52812;48.960;9.108;2022-12-13T15:59:01;-2.10;99.90
3086;DHT22;52812;48.960;9.108;2022-12-13T16:01:31;-2.20;99.90
3086;DHT22;52812;48.960;9.108;2022-12-13T16:03:58;-2.20;99.90
3086;DHT22;52812;48.960;9.108;2022-12-13T16:06:25;-2.20;99.90
3086;DHT22;52812;48.960;9.108;2022-12-13T16:08:54;-2.20;99.90
3086;DHT22;52812;48.960;9.108;2022-12-13T16:13:51;-2.20;99.90
3086;DHT22;52812;48.960;9.108;2022-12-13T16:16:26;-2.20;99.90
3086;DHT22;52812;48.960;9.108;2022-12-13T16:18:57;-2.20;99.90
3086;DHT22;52812;48.960;9.108;2022-12-13T16:21:24;-2.30;99.90
3086;DHT22;52812;48.960;9.108;2022-12-13T16:23:50;-2.30;99.90
3086;DHT22;52812;48.960;9.108;2022-12-13T16:26:23;-2.30;99.90
3086;DHT22;52812;48.960;9.108;2022-12-13T16:28:51;-2.30;99.90
3086;DHT22;52812;48.960;9.108;2022-12-13T16:31:19;-2.30;99.90
3086;DHT22;52812;48.960;9.108;2022-12-13T16:33:46;-2.30;99.90
3086;DHT22;52812;48.960;9.108;2022-12-13T16:36:11;-2.40;99.90
3086;DHT22;52812;48.960;9.108;2022-12-13T16:38:37;-2.40;99.90
3086;DHT22;52812;48.960;9.108;2022-12-13T16:41:03;-2.40;99.90
3086;DHT22;52812;48.960;9.108;2022-12-13T16:43:30;-2.40;99.90
3086;DHT22;52812;48.960;9.108;2022-12-13T16:45:57;-2.50;99.90
3086;DHT22;52812;48.960;9.108;2022-12-13T16:48:23;-2.50;99.90
3086;DHT22;52812;48.960;9.108;2022-12-13T16:50:50;-2.50;99.90
3086;DHT22;52812;48.960;9.108;2022-12-13T16:53:16;-2.60;99.90
3086;DHT22;52812;48.960;9.108;2022-12-13T16:55:43;-2.60;99.90
3086;DHT22;52812;48.960;9.108;2022-12-13T16:58:11;-2.60;99.90
3086;DHT22;52812;48.960;9.108;2022-12-13T17:00:37;-2.60;99.90
3086;DHT22;52812;48.960;9.108;2022-12-13T17:03:03;-2.60;99.90
3086;DHT22;52812;48.960;9.108;2022-12-13T17:05:29;-2.70;99.90
3086;DHT22;52812;48.960;9.108;2022-12-13T17:07:55;-2.70;99.90
3086;DHT22;52812;48.960;9.108;2022-12-13T17:10:22;-2.70;99.90
3086;DHT22;52812;48.960;9.108;2022-12-13T17:12:48;-2.70;99.90
3086;DHT22;52812;48.960;9.108;2022-12-13T17:15:13;-2.70;99.90
3086;DHT22;52812;48.960;9.108;2022-12-13T17:17:44;-2.70;99.90
3086;DHT22;52812;48.960;9.108;2022-12-13T17:20:11;-2.70;99.90
3086;DHT22;52812;48.960;9.108;2022-12-13T17:22:39;-2.70;99.90
3086;DHT22;52812;48.960;9.108;2022-12-13T17:25:05;-2.70;99.90
3086;DHT22;52812;48.960;9.108;2022-12-13T17:27:31;-2.70;99.90
3086;DHT22;52812;48.960;9.108;2022-12-13T17:29:57;-2.70;99.90
3086;DHT22;52812;48.960;9.108;2022-12-13T17:32:24;-2.70;99.90
3086;DHT22;52812;48.960;9.108;2022-12-13T17:34:50;-2.70;99.90
3086;DHT22;52812;48.960;9.108;2022-12-13T17:37:15;-2.70;99.90
3086;DHT22;52812;48.960;9.108;2022-12-13T17:39:41;-2.70;99.90
3086;DHT22;52812;48.960;9.108;2022-12-13T17:42:07;-2.70;99.90
3086;DHT22;52812;48.960;9.108;2022-12-13T17:44:33;-2.70;99.90
3086;DHT22;52812;48.960;9.108;2022-12-13T17:46:59;-2.70;99.90
3086;DHT22;52812;48.960;9.108;2022-12-13T17:49:25;-2.70;99.90
3086;DHT22;52812;48.960;9.108;2022-12-13T17:51:52;-2.80;99.90
3086;DHT22;52812;48.960;9.108;2022-12-13T17:54:18;-2.80;99.90
3086;DHT22;52812;48.960;9.108;2022-12-13T17:56:45;-2.70;99.90
3086;DHT22;52812;48.960;9.108;2022-12-13T17:59:13;-2.70;99.90
3086;DHT22;52812;48.960;9.108;2022-12-13T18:01:42;-2.70;99.90
3086;DHT22;52812;48.960;9.108;2022-12-13T18:04:09;-2.70;99.90
3086;DHT22;52812;48.960;9.108;2022-12-13T18:06:34;-2.70;99.90
3086;DHT22;52812;48.960;9.108;2022-12-13T18:09:01;-2.70;99.90